createdAt,value
2017-11-30T00:00:07.017Z,0.76
2017-11-30T00:01:07.476Z,0.74
2017-11-30T00:02:07.501Z,0.76
2017-11-30T00:03:07.032Z,0.76
2017-11-30T00:04:06.895Z,0.76
2017-11-30T00:05:07.193Z,0.76
2017-11-30T00:06:07.920Z,0.76
2017-11-30T00:07:07.153Z,0.77
2017-11-30T00:08:07.640Z,0.77
2017-11-30T00:09:07.031Z,0.77
2017-11-30T00:10:07.382Z,0.78
2017-11-30T00:11:06.687Z,0.78
2017-11-30T00:12:06.949Z,0.78
2017-11-30T00:13:07.250Z,0.78
2017-11-30T00:14:07.485Z,0.78
2017-11-30T00:15:06.764Z,0.80
2017-11-30T00:16:07.061Z,0.80
2017-11-30T00:17:07.251Z,0.80
2017-11-30T00:18:07.513Z,0.80
2017-11-30T00:19:06.659Z,0.80
2017-11-30T00:20:07.101Z,0.81
2017-11-30T00:21:07.440Z,0.83
2017-11-30T00:22:06.635Z,0.83
2017-11-30T00:23:06.915Z,0.83
2017-11-30T00:24:07.156Z,0.83
2017-11-30T00:25:07.617Z,0.84
2017-11-30T00:26:06.857Z,0.83
2017-11-30T00:27:07.154Z,0.84
2017-11-30T00:27:43.916Z,0.84
2017-11-30T00:28:44.249Z,0.84
2017-11-30T00:29:44.715Z,0.84
2017-11-30T00:30:43.971Z,0.84
2017-11-30T00:31:44.281Z,0.86
2017-11-30T00:32:44.498Z,0.87
2017-11-30T00:33:44.987Z,0.87
2017-11-30T00:34:44.236Z,0.86
2017-11-30T00:35:45.017Z,0.87
2017-11-30T00:36:44.210Z,0.88
2017-11-30T00:37:44.433Z,0.88
2017-11-30T00:38:44.895Z,0.91
2017-11-30T00:39:44.444Z,0.94
2017-11-30T00:40:44.007Z,0.92
2017-11-30T00:41:44.727Z,0.94
2017-11-30T00:42:44.026Z,0.92
2017-11-30T00:43:44.274Z,0.94
2017-11-30T00:44:44.509Z,0.94
2017-11-30T00:45:44.817Z,0.94
2017-11-30T00:46:44.158Z,0.95
2017-11-30T00:47:44.479Z,0.95
2017-11-30T00:48:44.685Z,0.94
2017-11-30T00:49:44.026Z,0.95
2017-11-30T00:50:44.255Z,0.96
2017-11-30T00:51:44.460Z,0.98
2017-11-30T00:52:44.806Z,0.96
2017-11-30T00:53:44.053Z,0.95
2017-11-30T00:54:44.612Z,0.96
2017-11-30T00:55:44.917Z,0.98
2017-11-30T00:56:44.126Z,0.96
2017-11-30T00:57:44.611Z,0.98
2017-11-30T00:58:44.867Z,0.98
2017-11-30T00:59:44.222Z,0.96
2017-11-30T01:00:44.575Z,0.98
2017-11-30T01:01:44.762Z,0.96
2017-11-30T01:02:44.022Z,0.96
2017-11-30T01:03:44.209Z,0.95
2017-11-30T01:04:44.475Z,0.95
2017-11-30T01:05:44.024Z,0.92
2017-11-30T01:06:44.255Z,0.91
2017-11-30T01:07:44.775Z,0.91
2017-11-30T01:08:43.998Z,0.88
2017-11-30T01:09:44.222Z,0.88
2017-11-30T01:10:44.476Z,0.88
2017-11-30T01:11:44.865Z,0.91
2017-11-30T01:12:44.113Z,0.92
2017-11-30T01:13:44.328Z,0.92
2017-11-30T01:14:44.566Z,0.94
2017-11-30T01:15:44.522Z,0.94
2017-11-30T01:16:44.849Z,0.94
2017-11-30T01:17:44.093Z,0.95
2017-11-30T01:18:44.499Z,0.95
2017-11-30T01:19:44.761Z,0.96
2017-11-30T01:20:44.030Z,0.96
2017-11-30T01:21:44.229Z,0.98
2017-11-30T01:22:44.395Z,0.98
2017-11-30T01:23:44.612Z,0.99
2017-11-30T01:24:44.904Z,0.98
2017-11-30T01:25:44.270Z,0.98
2017-11-30T01:26:44.731Z,0.98
2017-11-30T01:27:43.974Z,1.01
2017-11-30T01:28:44.234Z,1.01
2017-11-30T01:29:44.571Z,1.01
2017-11-30T01:30:45.025Z,1.02
2017-11-30T01:31:44.271Z,1.02
2017-11-30T01:32:44.547Z,1.04
2017-11-30T01:33:44.810Z,1.05
2017-11-30T01:34:44.062Z,1.05
2017-11-30T01:35:44.289Z,1.05
2017-11-30T01:36:44.566Z,1.08
2017-11-30T01:37:44.054Z,1.08
2017-11-30T01:38:44.409Z,1.08
2017-11-30T01:39:44.622Z,1.08
2017-11-30T01:40:44.821Z,1.10
2017-11-30T01:41:44.051Z,1.10
2017-11-30T01:42:44.803Z,1.13
2017-11-30T01:43:44.847Z,1.13
2017-11-30T01:44:44.102Z,1.12
2017-11-30T01:45:44.966Z,1.13
2017-11-30T01:46:44.302Z,1.14
2017-11-30T01:47:44.564Z,1.13
2017-11-30T01:48:44.050Z,1.12
2017-11-30T01:49:44.271Z,1.12
2017-11-30T01:50:45.460Z,1.13
2017-11-30T01:51:44.660Z,1.13
2017-11-30T01:52:43.871Z,1.13
2017-11-30T01:53:44.163Z,1.13
2017-11-30T01:54:44.368Z,1.13
2017-11-30T01:55:44.708Z,1.13
2017-11-30T01:56:44.087Z,1.13
2017-11-30T01:57:44.655Z,1.13
2017-11-30T01:58:43.894Z,1.13
2017-11-30T01:59:44.109Z,1.13
2017-11-30T02:00:44.449Z,1.13
2017-11-30T02:01:44.668Z,1.12
2017-11-30T02:02:44.025Z,1.13
2017-11-30T02:03:44.208Z,1.13
2017-11-30T02:04:44.445Z,1.14
2017-11-30T02:05:44.545Z,1.14
2017-11-30T02:06:44.678Z,1.14
2017-11-30T02:07:44.352Z,1.13
2017-11-30T02:08:43.900Z,1.13
2017-11-30T02:09:44.222Z,1.14
2017-11-30T02:10:44.677Z,1.16
2017-11-30T02:11:43.890Z,1.17
2017-11-30T02:12:44.222Z,1.16
2017-11-30T02:13:44.530Z,1.14
2017-11-30T02:14:44.930Z,1.13
2017-11-30T02:15:44.187Z,1.14
2017-11-30T02:16:44.390Z,1.16
2017-11-30T02:17:44.525Z,1.14
2017-11-30T02:18:44.164Z,1.14
2017-11-30T02:19:44.039Z,1.14
2017-11-30T02:20:44.241Z,1.14
2017-11-30T02:21:44.464Z,1.14
2017-11-30T02:22:44.724Z,1.16
2017-11-30T02:23:44.127Z,1.17
2017-11-30T02:24:44.089Z,1.17
2017-11-30T02:25:44.487Z,1.19
2017-11-30T02:26:43.905Z,1.19
2017-11-30T02:27:44.514Z,1.17
2017-11-30T02:28:44.685Z,1.16
2017-11-30T02:29:44.621Z,1.13
2017-11-30T02:30:44.518Z,1.14
2017-11-30T02:31:44.757Z,1.14
2017-11-30T02:32:43.941Z,1.16
2017-11-30T02:33:44.171Z,1.16
2017-11-30T02:34:44.496Z,1.14
2017-11-30T02:35:44.754Z,1.14
2017-11-30T02:36:43.979Z,1.14
2017-11-30T02:37:44.370Z,1.16
2017-11-30T02:38:44.661Z,1.16
2017-11-30T02:39:43.846Z,1.16
2017-11-30T02:40:44.046Z,1.16
2017-11-30T02:41:44.296Z,1.17
2017-11-30T02:42:44.608Z,1.16
2017-11-30T02:43:44.001Z,1.17
2017-11-30T02:44:44.289Z,1.17
2017-11-30T02:45:44.503Z,1.16
2017-11-30T02:46:43.868Z,1.14
2017-11-30T02:47:44.206Z,1.14
2017-11-30T02:48:44.544Z,1.16
2017-11-30T02:49:43.883Z,1.14
2017-11-30T02:50:44.121Z,1.13
2017-11-30T02:51:44.334Z,1.14
2017-11-30T02:52:44.875Z,1.17
2017-11-30T02:53:44.165Z,1.17
2017-11-30T02:54:44.445Z,1.17
2017-11-30T02:55:44.812Z,1.19
2017-11-30T02:56:44.087Z,1.19
2017-11-30T02:57:44.285Z,1.17
2017-11-30T02:58:44.328Z,1.16
2017-11-30T02:59:44.271Z,1.16
2017-11-30T03:00:44.486Z,1.16
2017-11-30T03:01:44.742Z,1.14
2017-11-30T03:02:43.985Z,1.17
2017-11-30T03:03:44.201Z,1.16
2017-11-30T03:04:44.634Z,1.16
2017-11-30T03:05:43.959Z,1.16
2017-11-30T03:06:44.254Z,1.16
2017-11-30T03:07:44.517Z,1.16
2017-11-30T03:08:44.761Z,1.17
2017-11-30T03:09:43.959Z,1.17
2017-11-30T03:10:44.171Z,1.16
2017-11-30T03:11:44.457Z,1.17
2017-11-30T03:12:44.758Z,1.17
2017-11-30T03:13:43.996Z,1.16
2017-11-30T03:14:44.285Z,1.16
2017-11-30T03:15:44.651Z,1.19
2017-11-30T03:16:44.169Z,1.19
2017-11-30T03:17:44.563Z,1.17
2017-11-30T03:18:44.800Z,1.19
2017-11-30T03:19:44.063Z,1.19
2017-11-30T03:20:44.334Z,1.20
2017-11-30T03:21:44.509Z,1.23
2017-11-30T03:22:44.656Z,1.23
2017-11-30T03:23:43.874Z,1.23
2017-11-30T03:24:44.105Z,1.22
2017-11-30T03:25:44.032Z,1.23
2017-11-30T03:26:44.208Z,1.22
2017-11-30T03:27:44.445Z,1.23
2017-11-30T03:28:44.604Z,1.26
2017-11-30T03:29:44.742Z,1.24
2017-11-30T03:30:44.005Z,1.26
2017-11-30T03:31:44.717Z,1.24
2017-11-30T03:32:43.967Z,1.23
2017-11-30T03:33:44.281Z,1.22
2017-11-30T03:34:44.464Z,1.22
2017-11-30T03:35:44.703Z,1.22
2017-11-30T03:36:43.902Z,1.22
2017-11-30T03:37:44.191Z,1.23
2017-11-30T03:38:43.825Z,1.24
2017-11-30T03:39:44.064Z,1.24
2017-11-30T03:40:44.670Z,1.26
2017-11-30T03:41:43.883Z,1.26
2017-11-30T03:42:44.153Z,1.26
2017-11-30T03:43:44.367Z,1.28
2017-11-30T03:44:44.108Z,1.26
2017-11-30T03:45:44.571Z,1.26
2017-11-30T03:46:45.070Z,1.28
2017-11-30T03:47:44.384Z,1.28
2017-11-30T03:48:44.544Z,1.28
2017-11-30T03:49:44.360Z,1.24
2017-11-30T03:50:44.302Z,1.26
2017-11-30T03:51:44.595Z,1.28
2017-11-30T03:52:44.857Z,1.28
2017-11-30T03:53:44.085Z,1.28
2017-11-30T03:54:44.494Z,1.26
2017-11-30T03:55:44.857Z,1.26
2017-11-30T03:56:44.102Z,1.28
2017-11-30T03:57:44.237Z,1.28
2017-11-30T03:58:44.412Z,1.30
2017-11-30T03:59:44.546Z,1.31
2017-11-30T04:00:44.882Z,1.31
2017-11-30T04:01:44.091Z,1.31
2017-11-30T04:02:44.334Z,1.32
2017-11-30T04:03:44.508Z,1.32
2017-11-30T04:04:44.691Z,1.32
2017-11-30T04:05:44.071Z,1.34
2017-11-30T04:06:44.309Z,1.32
2017-11-30T04:07:44.671Z,1.32
2017-11-30T04:08:43.952Z,1.31
2017-11-30T04:09:44.150Z,1.31
2017-11-30T04:10:44.346Z,1.34
2017-11-30T04:11:44.536Z,1.32
2017-11-30T04:12:44.777Z,1.31
2017-11-30T04:13:43.956Z,1.32
2017-11-30T04:14:44.192Z,1.32
2017-11-30T04:15:44.408Z,1.32
2017-11-30T04:16:44.650Z,1.35
2017-11-30T04:17:44.799Z,1.35
2017-11-30T04:18:43.993Z,1.37
2017-11-30T04:19:44.225Z,1.38
2017-11-30T04:20:44.488Z,1.37
2017-11-30T04:21:44.650Z,1.38
2017-11-30T04:22:43.938Z,1.37
2017-11-30T04:23:44.147Z,1.37
2017-11-30T04:24:44.270Z,1.37
2017-11-30T04:25:44.453Z,1.37
2017-11-30T04:26:44.621Z,1.35
2017-11-30T04:27:43.866Z,1.37
2017-11-30T04:28:44.037Z,1.42
2017-11-30T04:29:44.239Z,1.44
2017-11-30T04:30:44.438Z,1.42
2017-11-30T04:31:44.661Z,1.42
2017-11-30T04:32:44.004Z,1.44
2017-11-30T04:33:44.164Z,1.41
2017-11-30T04:34:44.418Z,1.41
2017-11-30T04:35:44.649Z,1.38
2017-11-30T04:36:44.797Z,1.40
2017-11-30T04:37:44.728Z,1.40
2017-11-30T04:38:43.964Z,1.40
2017-11-30T04:39:44.239Z,1.41
2017-11-30T04:40:44.510Z,1.40
2017-11-30T04:41:44.670Z,1.41
2017-11-30T04:42:43.948Z,1.38
2017-11-30T04:43:44.262Z,1.38
2017-11-30T04:44:44.636Z,1.37
2017-11-30T04:45:43.921Z,1.37
2017-11-30T04:46:44.075Z,1.37
2017-11-30T04:47:44.274Z,1.37
2017-11-30T04:48:44.551Z,1.38
2017-11-30T04:49:44.762Z,1.37
2017-11-30T04:50:44.103Z,1.37
2017-11-30T04:51:44.402Z,1.38
2017-11-30T04:52:44.623Z,1.37
2017-11-30T04:53:43.824Z,1.35
2017-11-30T04:54:44.050Z,1.34
2017-11-30T04:55:44.382Z,1.38
2017-11-30T04:56:54.454Z,1.38
2017-11-30T04:57:44.720Z,1.37
2017-11-30T04:58:43.844Z,1.37
2017-11-30T04:59:44.043Z,1.35
2017-11-30T05:00:44.451Z,1.37
2017-11-30T05:01:44.495Z,1.37
2017-11-30T05:02:44.807Z,1.38
2017-11-30T05:03:43.981Z,1.40
2017-11-30T05:04:44.204Z,1.38
2017-11-30T05:05:44.454Z,1.40
2017-11-30T05:06:44.637Z,1.40
2017-11-30T05:07:43.856Z,1.38
2017-11-30T05:08:44.098Z,1.38
2017-11-30T05:09:44.351Z,1.40
2017-11-30T05:10:44.598Z,1.40
2017-11-30T05:11:43.825Z,1.40
2017-11-30T05:12:44.059Z,1.40
2017-11-30T05:13:44.610Z,1.40
2017-11-30T05:14:43.858Z,1.38
2017-11-30T05:15:44.135Z,1.38
2017-11-30T05:16:44.625Z,1.38
2017-11-30T05:17:43.788Z,1.35
2017-11-30T05:18:44.048Z,1.40
2017-11-30T05:19:44.458Z,1.37
2017-11-30T05:20:44.654Z,1.37
2017-11-30T05:21:44.107Z,1.38
2017-11-30T05:22:44.551Z,1.38
2017-11-30T05:23:44.825Z,1.40
2017-11-30T05:24:44.001Z,1.41
2017-11-30T05:25:44.501Z,1.41
2017-11-30T05:26:44.818Z,1.42
2017-11-30T05:27:44.083Z,1.41
2017-11-30T05:28:44.354Z,1.38
2017-11-30T05:29:44.480Z,1.38
2017-11-30T05:30:44.764Z,1.40
2017-11-30T05:31:44.265Z,1.40
2017-11-30T05:32:44.122Z,1.38
2017-11-30T05:33:45.164Z,1.37
2017-11-30T05:34:44.508Z,1.37
2017-11-30T05:35:44.694Z,1.37
2017-11-30T05:36:43.869Z,1.37
2017-11-30T05:37:44.567Z,1.37
2017-11-30T05:38:44.930Z,1.37
2017-11-30T05:39:44.346Z,1.38
2017-11-30T05:40:44.531Z,1.38
2017-11-30T05:41:43.884Z,1.40
2017-11-30T05:42:44.276Z,1.40
2017-11-30T05:43:44.801Z,1.40
2017-11-30T05:44:44.338Z,1.40
2017-11-30T05:45:44.459Z,1.40
2017-11-30T05:46:44.795Z,1.40
2017-11-30T05:47:44.181Z,1.40
2017-11-30T05:48:44.505Z,1.38
2017-11-30T05:49:45.817Z,1.40
2017-11-30T05:50:44.523Z,1.40
2017-11-30T05:51:44.055Z,1.40
2017-11-30T05:52:44.524Z,1.40
2017-11-30T05:53:47.463Z,1.38
2017-11-30T05:54:45.335Z,1.40
2017-11-30T05:55:44.795Z,1.38
2017-11-30T05:56:44.111Z,1.38
2017-11-30T05:57:46.168Z,1.38
2017-11-30T05:58:44.484Z,1.38
2017-11-30T05:59:44.141Z,1.37
2017-11-30T06:00:44.290Z,1.34
2017-11-30T06:01:44.267Z,1.35
2017-11-30T06:02:44.637Z,1.35
2017-11-30T06:03:43.838Z,1.35
2017-11-30T06:04:44.187Z,1.35
2017-11-30T06:05:44.427Z,1.34
2017-11-30T06:06:44.727Z,1.34
2017-11-30T06:07:44.734Z,1.32
2017-11-30T06:08:43.991Z,1.32
2017-11-30T06:09:44.347Z,1.35
2017-11-30T06:10:44.598Z,1.35
2017-11-30T06:11:44.004Z,1.34
2017-11-30T06:12:44.176Z,1.37
2017-11-30T06:13:44.847Z,1.38
2017-11-30T06:14:44.345Z,1.38
2017-11-30T06:15:44.797Z,1.37
2017-11-30T06:16:43.953Z,1.37
2017-11-30T06:17:44.120Z,1.37
2017-11-30T06:18:44.339Z,1.34
2017-11-30T06:19:44.717Z,1.34
2017-11-30T06:20:43.953Z,1.34
2017-11-30T06:21:44.360Z,1.32
2017-11-30T06:22:44.469Z,1.34
2017-11-30T06:23:44.703Z,1.35
2017-11-30T06:24:44.183Z,1.37
2017-11-30T06:25:44.440Z,1.37
2017-11-30T06:26:44.710Z,1.37
2017-11-30T06:27:44.178Z,1.35
2017-11-30T06:28:44.369Z,1.32
2017-11-30T06:29:44.645Z,1.32
2017-11-30T06:30:43.915Z,1.30
2017-11-30T06:31:44.741Z,1.31
2017-11-30T06:32:44.134Z,1.32
2017-11-30T06:33:44.295Z,1.32
2017-11-30T06:34:44.863Z,1.32
2017-11-30T06:35:44.160Z,1.34
2017-11-30T06:36:44.442Z,1.37
2017-11-30T06:37:44.550Z,1.34
2017-11-30T06:38:43.790Z,1.32
2017-11-30T06:39:44.163Z,1.32
2017-11-30T06:40:44.381Z,1.32
2017-11-30T06:41:44.618Z,1.34
2017-11-30T06:42:43.940Z,1.35
2017-11-30T06:43:44.281Z,1.35
2017-11-30T06:44:44.444Z,1.34
2017-11-30T06:45:43.927Z,1.32
2017-11-30T06:46:44.772Z,1.32
2017-11-30T06:47:44.049Z,1.32
2017-11-30T06:48:44.309Z,1.32
2017-11-30T06:49:44.553Z,1.34
2017-11-30T06:50:44.200Z,1.34
2017-11-30T06:51:44.465Z,1.32
2017-11-30T06:52:44.500Z,1.32
2017-11-30T06:53:44.854Z,1.31
2017-11-30T06:54:44.842Z,1.34
2017-11-30T06:55:45.216Z,1.32
2017-11-30T06:56:44.747Z,1.32
2017-11-30T06:57:44.077Z,1.30
2017-11-30T06:58:44.365Z,1.30
2017-11-30T06:59:44.981Z,1.30
2017-11-30T07:00:44.558Z,1.30
2017-11-30T07:01:45.283Z,1.28
2017-11-30T07:02:44.995Z,1.28
2017-11-30T07:03:44.401Z,1.28
2017-11-30T07:04:44.698Z,1.30
2017-11-30T07:05:43.964Z,1.31
2017-11-30T07:06:44.521Z,1.32
2017-11-30T07:07:44.820Z,1.30
2017-11-30T07:08:44.258Z,1.30
2017-11-30T07:09:44.571Z,1.32
2017-11-30T07:10:44.208Z,1.32
2017-11-30T07:11:45.095Z,1.32
2017-11-30T07:12:44.743Z,1.30
2017-11-30T07:13:44.122Z,1.28
2017-11-30T07:14:44.633Z,1.30
2017-11-30T07:15:44.051Z,1.30
2017-11-30T07:16:44.410Z,1.28
2017-11-30T07:17:44.792Z,1.26
2017-11-30T07:18:44.047Z,1.26
2017-11-30T07:19:44.552Z,1.26
2017-11-30T07:20:44.844Z,1.26
2017-11-30T07:21:44.276Z,1.28
2017-11-30T07:22:45.332Z,1.28
2017-11-30T07:23:44.598Z,1.28
2017-11-30T07:24:44.889Z,1.30
2017-11-30T07:25:44.292Z,1.31
2017-11-30T07:26:44.642Z,1.31
2017-11-30T07:27:45.317Z,1.30
2017-11-30T07:28:44.693Z,1.28
2017-11-30T07:29:44.013Z,1.30
2017-11-30T07:30:44.270Z,1.30
2017-11-30T07:31:44.626Z,1.28
2017-11-30T07:32:44.182Z,1.30
2017-11-30T07:33:44.858Z,1.30
2017-11-30T07:34:44.315Z,1.31
2017-11-30T07:35:44.812Z,1.31
2017-11-30T07:36:44.335Z,1.34
2017-11-30T07:37:44.694Z,1.32
2017-11-30T07:38:44.185Z,1.32
2017-11-30T07:39:44.585Z,1.32
2017-11-30T07:40:44.871Z,1.35
2017-11-30T07:41:44.314Z,1.34
2017-11-30T07:42:44.692Z,1.32
2017-11-30T07:43:44.012Z,1.31
2017-11-30T07:44:44.799Z,1.32
2017-11-30T07:45:44.147Z,1.34
2017-11-30T07:46:44.477Z,1.37
2017-11-30T07:47:44.923Z,1.38
2017-11-30T07:48:44.287Z,1.38
2017-11-30T07:49:45.069Z,1.40
2017-11-30T07:50:44.409Z,1.38
2017-11-30T07:51:44.813Z,1.40
2017-11-30T07:52:44.146Z,1.41
2017-11-30T07:53:44.460Z,1.42
2017-11-30T07:54:44.972Z,1.42
2017-11-30T07:55:44.349Z,1.45
2017-11-30T07:56:44.745Z,1.45
2017-11-30T07:57:44.171Z,1.45
2017-11-30T07:58:44.489Z,1.48
2017-11-30T07:59:44.951Z,1.48
2017-11-30T08:00:44.394Z,1.48
2017-11-30T08:01:44.302Z,1.42
2017-11-30T08:02:44.979Z,1.44
2017-11-30T08:03:44.468Z,1.44
2017-11-30T08:04:45.188Z,1.48
2017-11-30T08:05:44.708Z,1.48
2017-11-30T08:06:44.153Z,1.48
2017-11-30T08:07:44.660Z,1.49
2017-11-30T08:08:44.759Z,1.49
2017-11-30T08:09:44.574Z,1.50
2017-11-30T08:10:43.494Z,1.53
2017-11-30T08:11:44.069Z,1.53
2017-11-30T08:12:43.728Z,1.52
2017-11-30T08:13:43.717Z,1.52
2017-11-30T08:14:43.611Z,1.50
2017-11-30T08:15:43.428Z,1.49
2017-11-30T08:16:44.986Z,1.45
2017-11-30T08:17:43.598Z,1.44
2017-11-30T08:18:44.965Z,1.42
2017-11-30T08:19:43.509Z,1.44
2017-11-30T08:20:44.243Z,1.45
2017-11-30T08:21:43.828Z,1.48
2017-11-30T08:22:43.377Z,1.49
2017-11-30T08:23:44.700Z,1.50
2017-11-30T08:24:43.248Z,1.53
2017-11-30T08:25:44.618Z,1.53
2017-11-30T08:26:44.100Z,1.55
2017-11-30T08:27:44.609Z,1.56
2017-11-30T08:28:44.206Z,1.56
2017-11-30T08:29:43.783Z,1.59
2017-11-30T08:30:44.177Z,1.62
2017-11-30T08:31:43.758Z,1.67
2017-11-30T08:32:43.301Z,1.68
2017-11-30T08:33:44.730Z,1.67
2017-11-30T08:34:43.493Z,1.66
2017-11-30T08:35:44.089Z,1.68
2017-11-30T08:36:44.482Z,1.70
2017-11-30T08:37:44.823Z,1.71
2017-11-30T08:38:44.267Z,1.73
2017-11-30T08:39:43.534Z,1.73
2017-11-30T08:40:44.949Z,1.73
2017-11-30T08:41:43.478Z,1.76
2017-11-30T08:42:44.099Z,1.78
2017-11-30T08:43:44.597Z,1.81
2017-11-30T08:44:44.123Z,1.85
2017-11-30T08:45:44.514Z,1.84
2017-11-30T08:46:44.127Z,1.88
2017-11-30T08:47:43.830Z,1.88
2017-11-30T08:48:43.406Z,1.89
2017-11-30T08:49:44.825Z,1.95
2017-11-30T08:50:43.497Z,1.97
2017-11-30T08:51:45.065Z,2.00
2017-11-30T08:52:44.471Z,2.04
2017-11-30T08:53:45.001Z,2.08
2017-11-30T08:54:43.638Z,2.10
2017-11-30T08:55:42.667Z,2.10
2017-11-30T08:56:42.411Z,2.17
2017-11-30T08:57:43.763Z,2.33
2017-11-30T08:58:42.779Z,2.43
2017-11-30T08:59:42.654Z,2.47
2017-11-30T09:00:42.844Z,2.47
2017-11-30T09:01:42.889Z,2.50
2017-11-30T09:02:43.073Z,2.53
2017-11-30T09:03:43.477Z,2.57
2017-11-30T09:04:42.908Z,2.64
2017-11-30T09:05:43.155Z,2.65
2017-11-30T09:06:43.069Z,2.64
2017-11-30T09:07:43.172Z,2.64
2017-11-30T09:08:43.267Z,2.62
2017-11-30T09:09:43.379Z,2.71
2017-11-30T09:10:44.763Z,2.75
2017-11-30T09:11:43.353Z,2.74
2017-11-30T09:12:44.762Z,2.80
2017-11-30T09:13:44.290Z,2.85
2017-11-30T09:14:44.866Z,2.86
2017-11-30T09:15:43.512Z,2.95
2017-11-30T09:16:44.108Z,2.98
2017-11-30T09:17:44.520Z,3.01
2017-11-30T09:18:44.984Z,3.16
2017-11-30T09:19:44.008Z,3.21
2017-11-30T09:20:44.364Z,3.19
2017-11-30T09:21:44.871Z,3.19
2017-11-30T09:22:44.272Z,3.26
2017-11-30T09:23:44.926Z,3.31
2017-11-30T09:24:44.137Z,3.32
2017-11-30T09:25:44.537Z,3.34
2017-11-30T09:26:44.020Z,3.28
2017-11-30T09:27:44.427Z,3.26
2017-11-30T09:28:44.020Z,3.26
2017-11-30T09:29:43.667Z,3.25
2017-11-30T09:30:43.220Z,3.23
2017-11-30T09:31:44.654Z,3.29
2017-11-30T09:32:43.314Z,3.36
2017-11-30T09:33:44.796Z,3.32
2017-11-30T09:34:43.399Z,3.29
2017-11-30T09:35:44.410Z,3.34
2017-11-30T09:36:44.354Z,3.37
2017-11-30T09:37:44.818Z,3.44
2017-11-30T09:38:43.401Z,3.48
2017-11-30T09:39:44.704Z,3.45
2017-11-30T09:40:44.209Z,3.41
2017-11-30T09:41:43.726Z,3.42
2017-11-30T09:42:44.095Z,3.42
2017-11-30T09:43:43.752Z,3.47
2017-11-30T09:44:44.327Z,3.47
2017-11-30T09:45:45.253Z,3.53
2017-11-30T09:46:44.627Z,3.56
2017-11-30T09:47:45.024Z,3.60
2017-11-30T09:48:43.665Z,3.56
2017-11-30T09:49:43.378Z,3.65
2017-11-30T09:50:44.101Z,3.73
2017-11-30T09:51:44.526Z,3.76
2017-11-30T09:52:43.242Z,3.78
2017-11-30T09:53:44.753Z,3.88
2017-11-30T09:54:43.380Z,3.99
2017-11-30T09:55:43.997Z,3.94
2017-11-30T09:56:44.192Z,3.81
2017-11-30T09:57:44.651Z,3.77
2017-11-30T09:58:43.932Z,3.70
2017-11-30T09:59:44.281Z,3.65
2017-11-30T10:00:44.787Z,3.59
2017-11-30T10:01:44.180Z,3.66
2017-11-30T10:02:43.860Z,3.63
2017-11-30T10:03:43.491Z,3.63
2017-11-30T10:04:44.874Z,3.58
2017-11-30T10:05:44.256Z,3.53
2017-11-30T10:06:43.841Z,3.55
2017-11-30T10:07:43.381Z,3.56
2017-11-30T10:08:44.013Z,3.50
2017-11-30T10:09:44.344Z,3.41
2017-11-30T10:10:44.029Z,3.37
2017-11-30T10:11:44.861Z,3.34
2017-11-30T10:12:44.242Z,3.26
2017-11-30T10:13:44.637Z,3.22
2017-11-30T10:14:44.983Z,3.18
2017-11-30T10:15:43.725Z,3.14
2017-11-30T10:16:43.338Z,3.10
2017-11-30T10:17:44.719Z,3.05
2017-11-30T10:19:07.695Z,3.01
2017-11-30T10:20:10.222Z,3.00
2017-11-30T10:21:09.801Z,3.00
2017-11-30T10:22:08.921Z,3.00
2017-11-30T10:23:08.279Z,3.00
2017-11-30T10:24:08.323Z,3.00
2017-11-30T10:25:07.851Z,3.03
2017-11-30T10:26:09.136Z,3.03
2017-11-30T10:27:07.743Z,3.03
2017-11-30T10:28:09.483Z,3.03
2017-11-30T10:29:09.608Z,3.04
2017-11-30T10:30:09.786Z,3.07
2017-11-30T10:31:09.423Z,3.08
2017-11-30T10:32:08.332Z,3.08
2017-11-30T10:33:08.961Z,3.13
2017-11-30T10:34:10.753Z,3.16
2017-11-30T10:35:09.475Z,3.16
2017-11-30T10:36:09.393Z,3.18
2017-11-30T10:37:09.076Z,3.16
2017-11-30T10:38:09.164Z,3.16
2017-11-30T10:39:09.488Z,3.14
2017-11-30T10:40:08.570Z,3.11
2017-11-30T10:41:08.315Z,3.11
2017-11-30T10:42:08.628Z,3.08
2017-11-30T10:43:08.783Z,3.10
2017-11-30T10:44:09.734Z,3.11
2017-11-30T10:45:08.392Z,3.21
2017-11-30T10:46:08.359Z,3.25
2017-11-30T10:47:09.333Z,3.31
2017-11-30T10:48:09.813Z,3.34
2017-11-30T10:49:09.326Z,3.34
2017-11-30T10:50:10.338Z,3.31
2017-11-30T10:51:09.042Z,3.26
2017-11-30T10:52:08.332Z,3.23
2017-11-30T10:53:08.697Z,3.26
2017-11-30T10:54:09.140Z,3.23
2017-11-30T10:55:08.686Z,3.21
2017-11-30T10:56:09.077Z,3.21
2017-11-30T10:57:09.398Z,3.16
2017-11-30T10:58:08.062Z,3.11
2017-11-30T10:59:09.692Z,3.08
2017-11-30T11:00:08.859Z,3.05
2017-11-30T11:01:09.221Z,3.04
2017-11-30T11:02:07.808Z,3.04
2017-11-30T11:03:09.229Z,3.00
2017-11-30T11:04:08.089Z,2.98
2017-11-30T11:05:08.663Z,2.98
2017-11-30T11:06:08.262Z,2.95
2017-11-30T11:07:07.832Z,2.92
2017-11-30T11:08:09.253Z,2.92
2017-11-30T11:09:08.633Z,2.90
2017-11-30T11:10:08.160Z,2.89
2017-11-30T11:11:07.760Z,2.92
2017-11-30T11:12:09.205Z,2.90
2017-11-30T11:13:08.473Z,2.90
2017-11-30T11:14:07.965Z,2.90
2017-11-30T11:15:08.372Z,2.89
2017-11-30T11:16:09.326Z,2.87
2017-11-30T11:17:08.705Z,2.87
2017-11-30T11:18:08.300Z,2.83
2017-11-30T11:19:07.795Z,2.83
2017-11-30T11:20:08.394Z,2.80
2017-11-30T11:21:09.000Z,2.82
2017-11-30T11:22:08.453Z,2.83
2017-11-30T11:23:08.093Z,2.82
2017-11-30T11:24:07.881Z,2.80
2017-11-30T11:25:08.388Z,2.77
2017-11-30T11:26:07.880Z,2.79
2017-11-30T11:27:09.321Z,2.80
2017-11-30T11:28:07.882Z,2.80
2017-11-30T11:29:08.476Z,2.79
2017-11-30T11:30:08.715Z,2.82
2017-11-30T11:31:09.171Z,2.85
2017-11-30T11:32:07.908Z,2.85
2017-11-30T11:33:09.488Z,2.85
2017-11-30T11:34:08.450Z,2.83
2017-11-30T11:35:08.339Z,2.82
2017-11-30T11:36:09.081Z,2.82
2017-11-30T11:37:08.547Z,2.82
2017-11-30T11:38:08.245Z,2.85
2017-11-30T11:39:08.805Z,2.86
2017-11-30T11:40:09.212Z,2.86
2017-11-30T11:41:07.782Z,2.85
2017-11-30T11:42:08.395Z,2.85
2017-11-30T11:43:08.872Z,2.85
2017-11-30T11:44:08.483Z,2.86
2017-11-30T11:45:08.102Z,2.86
2017-11-30T11:46:08.587Z,2.86
2017-11-30T11:47:08.254Z,2.89
2017-11-30T11:48:08.581Z,2.86
2017-11-30T11:49:08.905Z,2.85
2017-11-30T11:50:09.258Z,2.86
2017-11-30T11:51:08.824Z,2.85
2017-11-30T11:52:08.365Z,2.85
2017-11-30T11:53:07.995Z,2.86
2017-11-30T11:54:08.644Z,2.85
2017-11-30T11:55:09.095Z,2.87
2017-11-30T11:56:08.686Z,2.89
2017-11-30T11:57:09.142Z,2.90
2017-11-30T11:58:07.786Z,2.92
2017-11-30T11:59:08.397Z,2.95
2017-11-30T12:00:08.074Z,3.00
2017-11-30T12:01:08.669Z,3.00
2017-11-30T12:02:09.059Z,3.01
2017-11-30T12:03:08.893Z,3.01
2017-11-30T12:04:09.313Z,3.01
2017-11-30T12:05:08.716Z,3.03
2017-11-30T12:06:09.167Z,3.04
2017-11-30T12:07:07.997Z,3.05
2017-11-30T12:08:09.527Z,3.10
2017-11-30T12:09:08.877Z,3.10
2017-11-30T12:10:09.301Z,3.13
2017-11-30T12:11:08.660Z,3.13
2017-11-30T12:12:09.116Z,3.11
2017-11-30T12:13:09.456Z,3.11
2017-11-30T12:14:07.797Z,3.10
2017-11-30T12:15:08.298Z,3.08
2017-11-30T12:16:08.554Z,3.10
2017-11-30T12:17:08.557Z,3.14
2017-11-30T12:18:08.894Z,3.16
2017-11-30T12:19:08.397Z,3.16
2017-11-30T12:20:08.740Z,3.18
2017-11-30T12:21:08.309Z,3.19
2017-11-30T12:22:08.210Z,3.21
2017-11-30T12:23:07.810Z,3.21
2017-11-30T12:24:08.361Z,3.18
2017-11-30T12:25:07.952Z,3.18
2017-11-30T12:26:08.488Z,3.13
2017-11-30T12:27:08.118Z,3.10
2017-11-30T12:28:08.672Z,3.10
2017-11-30T12:29:08.278Z,3.16
2017-11-30T12:30:08.661Z,3.23
2017-11-30T12:31:08.203Z,3.25
2017-11-30T12:32:07.983Z,3.23
2017-11-30T12:33:09.386Z,3.23
2017-11-30T12:34:08.835Z,3.22
2017-11-30T12:35:09.285Z,3.21
2017-11-30T12:36:08.247Z,3.19
2017-11-30T12:37:07.850Z,3.16
2017-11-30T12:38:08.446Z,3.16
2017-11-30T12:39:08.877Z,3.21
2017-11-30T12:40:09.340Z,3.22
2017-11-30T12:41:08.853Z,3.23
2017-11-30T12:42:09.324Z,3.23
2017-11-30T12:43:08.731Z,3.25
2017-11-30T12:44:08.225Z,3.23
2017-11-30T12:45:07.843Z,3.22
2017-11-30T12:46:08.349Z,3.22
2017-11-30T12:47:07.870Z,3.23
2017-11-30T12:48:09.732Z,3.25
2017-11-30T12:49:09.109Z,3.28
2017-11-30T12:50:07.686Z,3.28
2017-11-30T12:51:09.198Z,3.29
2017-11-30T12:52:08.559Z,3.31
2017-11-30T12:53:08.841Z,3.31
2017-11-30T12:54:09.247Z,3.28
2017-11-30T12:55:08.813Z,3.28
2017-11-30T12:56:09.179Z,3.29
2017-11-30T12:57:35.540Z,3.32
2017-11-30T12:58:36.227Z,3.36
2017-11-30T12:59:35.042Z,3.40
2017-11-30T13:00:34.918Z,3.44
2017-11-30T13:01:35.367Z,3.47
2017-11-30T13:02:35.742Z,3.47
2017-11-30T13:03:35.680Z,3.47
2017-11-30T13:04:39.388Z,3.45
2017-11-30T13:05:35.945Z,3.42
2017-11-30T13:06:36.039Z,3.37
2017-11-30T13:07:36.465Z,3.36
2017-11-30T13:08:35.970Z,3.36
2017-11-30T13:09:35.631Z,3.36
2017-11-30T13:10:35.443Z,3.36
2017-11-30T13:11:35.783Z,3.40
2017-11-30T13:12:36.124Z,3.41
2017-11-30T13:13:35.395Z,3.37
2017-11-30T13:14:35.550Z,3.36
2017-11-30T13:15:35.451Z,3.34
2017-11-30T13:16:36.272Z,3.36
2017-11-30T13:18:02.604Z,3.36
2017-11-30T13:19:02.339Z,3.34